Time;durP1;ratioP1;P1;durP2;ratioP2;P2;SDS_P1;SDS_P2;PMS_P1;PMS_P2;Temp;Humidity;BMP_temperature;BMP_pressure;BME280_temperature;BME280_humidity;BME280_pressure;Samples;Min_cycle;Max_cycle;Signal;HPM_P1;HPM_P2
2023/09/27 00:02:22;326183.00;1.09;562.93;71071.00;0.24;123.61;;;;;19.80;1.00;;;;;;2251274;61;1884;-87
2023/09/27 00:04:49;293685.00;0.98;507.06;78879.00;0.26;137.10;;;;;19.80;1.00;;;;;;2251372;61;881;-85
2023/09/27 00:07:16;170232.00;0.57;294.67;78053.00;0.26;135.67;;;;;19.60;1.00;;;;;;2251533;61;1017;-87
2023/09/27 00:09:44;232223.00;0.77;401.37;74636.00;0.25;129.77;;;;;19.70;1.00;;;;;;2251298;61;1318;-86
2023/09/27 00:12:11;244369.00;0.81;422.27;75069.00;0.25;130.52;;;;;19.70;1.00;;;;;;2252038;61;1082;-86
2023/09/27 00:14:37;268753.00;0.90;464.20;70635.00;0.24;122.86;;;;;19.60;1.00;;;;;;2252122;61;1919;-86
2023/09/27 00:17:04;181663.00;0.61;314.35;76455.00;0.25;132.91;;;;;19.70;1.00;;;;;;2252148;61;1114;-86
2023/09/27 00:19:31;164350.00;0.55;284.53;78265.00;0.26;136.04;;;;;19.60;1.00;;;;;;2252026;61;1404;-86
2023/09/27 00:21:58;228621.00;0.76;395.18;75562.00;0.25;131.37;;;;;19.60;1.00;;;;;;2252015;61;1076;-87
2023/09/27 00:24:25;169112.00;0.56;292.74;74218.00;0.25;129.05;;;;;19.60;1.00;;;;;;2252126;61;1130;-86
2023/09/27 00:26:54;168771.00;0.56;292.15;80662.00;0.27;140.18;;;;;19.70;1.00;;;;;;2252059;61;1073;-85
2023/09/27 00:29:21;168196.00;0.56;291.16;74927.00;0.25;130.27;;;;;19.60;1.00;;;;;;2252034;61;1107;-86
2023/09/27 00:31:47;263636.00;0.88;455.40;74903.00;0.25;130.23;;;;;19.50;1.00;;;;;;2252135;61;1610;-85
2023/09/27 00:34:15;201558.00;0.67;348.61;77574.00;0.26;134.85;;;;;19.50;1.00;;;;;;2252044;61;1269;-87
2023/09/27 00:36:42;52797.00;0.18;92.02;61508.00;0.21;107.08;;;;;19.50;1.00;;;;;;2252073;61;2007;-86
2023/09/27 00:39:09;117037320.00;390.12;64937872.00;0.00;0.00;0.62;;;;;19.50;1.00;;;;;;2252058;61;1030;-86
2023/09/27 00:41:36;313121.00;1.04;540.47;72802.00;0.24;126.60;;;;;19.30;1.00;;;;;;2252015;61;1391;-86
2023/09/27 00:44:05;51383.00;0.17;89.58;0.00;0.00;0.62;;;;;19.40;1.00;;;;;;2251904;61;1095;-86
2023/09/27 00:46:32;0.00;0.00;0.62;0.00;0.00;0.62;;;;;19.10;1.00;;;;;;2251939;61;1142;-87
2023/09/27 00:48:59;29061.00;0.10;50.96;0.00;0.00;0.62;;;;;19.10;1.00;;;;;;2252011;61;1099;-85
2023/09/27 00:51:27;45937.00;0.15;80.16;0.00;0.00;0.62;;;;;19.00;1.00;;;;;;2251893;61;1395;-87
2023/09/27 00:53:56;100986.00;0.34;175.27;34552.00;0.12;60.46;;;;;18.70;1.00;;;;;;2251855;61;1063;-85
2023/09/27 00:56:25;0.00;0.00;0.62;0.00;0.00;0.62;;;;;18.80;1.00;;;;;;2251981;61;2006;-85
2023/09/27 00:58:53;0.00;0.00;0.62;0.00;0.00;0.62;;;;;18.80;1.00;;;;;;2251610;61;1204;-84
2023/09/27 01:01:22;250334.00;0.83;432.53;0.00;0.00;0.62;;;;;18.90;1.00;;;;;;2251418;61;1440;-85
2023/09/27 01:03:50;0.00;0.00;0.62;0.00;0.00;0.62;;;;;19.10;1.00;;;;;;2251548;61;1072;-84
2023/09/27 01:06:18;0.00;0.00;0.62;0.00;0.00;0.62;;;;;19.20;1.00;;;;;;2251613;61;1125;-88
2023/09/27 01:08:45;0.00;0.00;0.62;0.00;0.00;0.62;;;;;19.10;1.00;;;;;;2251474;61;1565;-84
2023/09/27 01:11:12;40305.00;0.13;70.42;0.00;0.00;0.62;;;;;19.10;1.00;;;;;;2251628;61;1294;-85
2023/09/27 01:13:39;0.00;0.00;0.62;0.00;0.00;0.62;;;;;18.90;1.00;;;;;;2251673;61;2089;-84
2023/09/27 01:16:05;0.00;0.00;0.62;0.00;0.00;0.62;;;;;19.00;1.00;;;;;;2251494;61;2011;-84
2023/09/27 01:18:34;42098.00;0.14;73.52;0.00;0.00;0.62;;;;;19.20;1.00;;;;;;2251605;61;1166;-85
2023/09/27 01:21:01;0.00;0.00;0.62;0.00;0.00;0.62;;;;;19.40;1.00;;;;;;2251595;61;1324;-84
2023/09/27 01:23:30;4023.00;0.01;7.59;0.00;0.00;0.62;;;;;19.50;1.00;;;;;;2251553;61;1091;-84
2023/09/27 01:25:59;577.00;0.00;1.62;0.00;0.00;0.62;;;;;19.50;1.00;;;;;;2251444;61;1140;-85
2023/09/27 01:28:27;231838.00;0.77;400.71;0.00;0.00;0.62;;;;;19.30;1.00;;;;;;2251586;61;1136;-85
2023/09/27 01:30:54;14226.00;0.05;25.27;0.00;0.00;0.62;;;;;19.30;1.00;;;;;;2251471;61;1265;-84
2023/09/27 01:33:20;12359.00;0.04;22.04;0.00;0.00;0.62;;;;;19.20;1.00;;;;;;2251449;61;2405;-86
2023/09/27 01:35:47;32993.00;0.11;57.76;0.00;0.00;0.62;;;;;19.10;1.00;;;;;;2251581;61;2002;-86
2023/09/27 01:38:14;9184.00;0.03;16.54;0.00;0.00;0.62;;;;;18.70;1.00;;;;;;2251661;61;1035;-86
2023/09/27 01:40:44;33516.00;0.11;58.67;0.00;0.00;0.62;;;;;18.80;1.00;;;;;;2251416;61;1373;-87
2023/09/27 01:43:12;87922.00;0.29;152.72;20938.00;0.07;36.89;;;;;18.80;1.00;;;;;;2251474;61;1136;-86
2023/09/27 01:45:39;76132.00;0.25;132.36;0.00;0.00;0.62;;;;;18.80;1.00;;;;;;2251461;61;1121;-86
2023/09/27 01:48:06;0.00;0.00;0.62;0.00;0.00;0.62;;;;;18.80;1.00;;;;;;2251524;61;1150;-85
2023/09/27 01:50:36;17935.00;0.06;31.69;0.00;0.00;0.62;;;;;18.50;1.00;;;;;;2251390;61;1409;-86
2023/09/27 01:53:04;23435.00;0.08;41.22;0.00;0.00;0.62;;;;;18.60;1.00;;;;;;2251506;61;1135;-85
2023/09/27 01:55:31;22278.00;0.07;39.21;0.00;0.00;0.62;;;;;18.60;1.00;;;;;;2251528;61;2017;-85
2023/09/27 01:57:59;12215.00;0.04;21.79;0.00;0.00;0.62;;;;;18.70;1.00;;;;;;2251536;61;1125;-83
2023/09/27 02:00:26;18108.00;0.06;31.99;0.00;0.00;0.62;;;;;18.40;1.00;;;;;;2251419;61;1300;-85
2023/09/27 02:02:56;0.00;0.00;0.62;0.00;0.00;0.62;;;;;18.70;1.00;;;;;;2251481;61;1040;-83
2023/09/27 02:05:23;0.00;0.00;0.62;0.00;0.00;0.62;;;;;18.90;1.00;;;;;;2251448;61;1597;-85
2023/09/27 02:07:50;18321.00;0.06;32.36;0.00;0.00;0.62;;;;;19.10;1.00;;;;;;2251551;61;2193;-84
2023/09/27 02:10:17;4816.00;0.02;8.97;0.00;0.00;0.62;;;;;18.80;1.00;;;;;;2251503;61;1390;-86
2023/09/27 02:12:44;29962.00;0.10;52.52;0.00;0.00;0.62;;;;;18.40;1.00;;;;;;2251475;61;1105;-85
2023/09/27 02:15:14;0.00;0.00;0.62;0.00;0.00;0.62;;;;;18.40;1.00;;;;;;2251357;61;2002;-84
2023/09/27 02:17:42;0.00;0.00;0.62;0.00;0.00;0.62;;;;;18.60;1.00;;;;;;2251270;61;1125;-84
2023/09/27 02:20:12;266.00;0.00;1.08;0.00;0.00;0.62;;;;;18.70;1.00;;;;;;2251347;61;1287;-85
2023/09/27 02:22:41;68956.00;0.23;119.96;0.00;0.00;0.62;;;;;18.60;1.00;;;;;;2251551;61;1102;-85
2023/09/27 02:25:11;0.00;0.00;0.62;0.00;0.00;0.62;;;;;18.60;1.00;;;;;;2251492;61;1065;-84
2023/09/27 02:27:38;14083.00;0.05;25.02;0.00;0.00;0.62;;;;;18.80;1.00;;;;;;2251439;61;1118;-85
2023/09/27 02:30:11;68081.00;0.23;118.44;0.00;0.00;0.62;;;;;18.50;1.00;;;;;;2251378;61;1400;-86
2023/09/27 02:32:40;275199.00;0.92;475.28;85803.00;0.29;149.06;;;;;18.10;1.00;;;;;;2251443;61;1157;-85
2023/09/27 02:35:09;19435.00;0.06;34.29;0.00;0.00;0.62;;;;;17.70;1.00;;;;;;2251348;61;1165;-85
2023/09/27 02:37:36;10734.00;0.04;19.22;0.00;0.00;0.62;;;;;17.80;1.00;;;;;;2251278;61;2245;-84
2023/09/27 02:40:11;8554.00;0.03;15.44;0.00;0.00;0.62;;;;;18.00;1.00;;;;;;2251395;61;1298;-83
2023/09/27 02:42:38;0.00;0.00;0.62;0.00;0.00;0.62;;;;;18.30;1.00;;;;;;2251322;61;1678;-85
2023/09/27 02:45:08;131758.00;0.44;228.36;34480.00;0.11;60.34;;;;;18.70;1.00;;;;;;2251303;61;1047;-84
2023/09/27 02:47:35;177247.00;0.59;306.75;94897.00;0.32;164.76;;;;;18.80;1.00;;;;;;2251449;61;1122;-85
2023/09/27 02:50:04;226807.00;0.76;392.06;77974.00;0.26;135.54;;;;;18.90;1.00;;;;;;2251264;61;1411;-83
2023/09/27 02:52:31;204830.00;0.68;354.24;76619.00;0.26;133.20;;;;;18.90;1.00;;;;;;2251385;61;1110;-84
2023/09/27 02:54:58;276887.00;0.92;478.19;78409.00;0.26;136.29;;;;;18.50;1.00;;;;;;2251367;61;946;-84
2023/09/27 02:57:25;183194.00;0.61;316.99;72971.00;0.24;126.89;;;;;18.60;1.00;;;;;;2251328;61;2006;-83
2023/09/27 02:59:52;271838.00;0.91;469.50;134999.00;0.45;233.95;;;;;18.80;1.00;;;;;;2251251;61;1391;-85
2023/09/27 03:02:20;223559.00;0.75;386.47;68155.00;0.23;118.57;;;;;19.00;1.00;;;;;;2251511;61;1123;-84
2023/09/27 03:04:47;172847.00;0.58;299.17;75503.00;0.25;131.27;;;;;18.90;1.00;;;;;;2251710;61;1133;-82
2023/09/27 03:07:16;0.00;0.00;0.62;0.00;0.00;0.62;;;;;18.80;1.00;;;;;;2251649;61;1122;-85
2023/09/27 03:09:43;124195.00;0.41;215.32;0.00;0.00;0.62;;;;;18.80;1.00;;;;;;2251346;61;1383;-85
2023/09/27 03:12:11;236208.00;0.79;408.23;0.00;0.00;0.62;;;;;18.00;1.00;;;;;;2251587;61;1965;-84
2023/09/27 03:14:39;38550.00;0.13;67.38;0.00;0.00;0.62;;;;;18.20;1.00;;;;;;2251582;61;1154;-85
2023/09/27 03:17:06;71287.00;0.24;123.98;0.00;0.00;0.62;;;;;18.50;1.00;;;;;;2251589;61;1999;-85
2023/09/27 03:19:32;0.00;0.00;0.62;0.00;0.00;0.62;;;;;18.60;1.00;;;;;;2251562;61;1375;-84
2023/09/27 03:21:59;66741.00;0.22;116.13;0.00;0.00;0.62;;;;;18.50;1.00;;;;;;2251616;61;1084;-84
2023/09/27 03:24:29;58059.00;0.19;101.12;0.00;0.00;0.62;;;;;18.80;1.00;;;;;;2251541;61;1043;-85
2023/09/27 03:26:56;8120.00;0.03;14.69;0.00;0.00;0.62;;;;;18.90;1.00;;;;;;2251639;61;1098;-84
2023/09/27 03:29:22;0.00;0.00;0.62;0.00;0.00;0.62;;;;;18.90;1.00;;;;;;2251532;61;2245;-84
2023/09/27 03:31:49;120362.00;0.40;208.71;0.00;0.00;0.62;;;;;18.70;1.00;;;;;;2251586;61;1326;-84
2023/09/27 03:34:17;88967.00;0.30;154.52;0.00;0.00;0.62;;;;;18.50;1.00;;;;;;2251751;61;1079;-86
2023/09/27 03:36:44;0.00;0.00;0.62;0.00;0.00;0.62;;;;;18.50;1.00;;;;;;2251408;61;1990;-84
2023/09/27 03:39:11;16945.00;0.06;29.98;0.00;0.00;0.62;;;;;18.70;1.00;;;;;;2251585;61;1134;-84
2023/09/27 03:41:40;162025.00;0.54;280.53;18753.00;0.06;33.11;;;;;18.90;1.00;;;;;;2251447;61;1355;-84
2023/09/27 03:44:06;80008.00;0.27;139.05;0.00;0.00;0.62;;;;;18.90;1.00;;;;;;2251255;61;1281;-85
2023/09/27 03:46:33;248512.00;0.83;429.39;11670.00;0.04;20.84;;;;;18.70;1.00;;;;;;2251413;61;1105;-85
2023/09/27 03:49:00;81796.00;0.27;142.14;0.00;0.00;0.62;;;;;18.70;1.00;;;;;;2251519;61;931;-85
2023/09/27 03:51:27;15349.00;0.05;27.22;0.00;0.00;0.62;;;;;18.70;1.00;;;;;;2251517;61;1396;-85
2023/09/27 03:53:54;0.00;0.00;0.62;0.00;0.00;0.62;;;;;18.70;1.00;;;;;;2251680;61;1137;-86
2023/09/27 03:56:22;0.00;0.00;0.62;0.00;0.00;0.62;;;;;18.50;1.00;;;;;;2251634;61;1918;-85
2023/09/27 03:58:51;0.00;0.00;0.62;0.00;0.00;0.62;;;;;18.50;1.00;;;;;;2251518;61;1121;-85
2023/09/27 04:01:17;41194.00;0.14;71.95;0.00;0.00;0.62;;;;;18.50;1.00;;;;;;2251543;61;1294;-85
2023/09/27 04:03:44;55382.00;0.18;96.49;0.00;0.00;0.62;;;;;18.50;1.00;;;;;;2251369;61;1004;-86
2023/09/27 04:06:11;59523.00;0.20;103.65;0.00;0.00;0.62;;;;;18.60;1.00;;;;;;2251525;61;1071;-87
2023/09/27 04:08:38;0.00;0.00;0.62;0.00;0.00;0.62;;;;;18.70;1.00;;;;;;2251444;61;1185;-86
2023/09/27 04:11:06;18481.00;0.06;32.64;0.00;0.00;0.62;;;;;18.60;1.00;;;;;;2251621;61;1318;-86
2023/09/27 04:13:33;56391.00;0.19;98.24;0.00;0.00;0.62;;;;;18.70;1.00;;;;;;2251718;61;1043;-86
2023/09/27 04:16:03;0.00;0.00;0.62;0.00;0.00;0.62;;;;;18.90;1.00;;;;;;2251630;61;2016;-86
2023/09/27 04:18:30;46861.00;0.16;81.76;0.00;0.00;0.62;;;;;18.80;1.00;;;;;;2251573;61;1090;-85
2023/09/27 04:21:05;0.00;0.00;0.62;0.00;0.00;0.62;;;;;18.70;1.00;;;;;;2251546;61;1407;-86
2023/09/27 04:23:33;0.00;0.00;0.62;0.00;0.00;0.62;;;;;18.80;1.00;;;;;;2251501;61;1019;-85
2023/09/27 04:26:00;31896.00;0.11;55.86;0.00;0.00;0.62;;;;;18.70;1.00;;;;;;2251459;61;2290;-86
2023/09/27 04:28:26;0.00;0.00;0.62;0.00;0.00;0.62;;;;;18.40;1.00;;;;;;2251378;61;1114;-86
2023/09/27 04:30:53;8839.00;0.03;15.94;0.00;0.00;0.62;;;;;17.80;1.00;;;;;;2251411;61;1357;-86
2023/09/27 04:33:21;29385.00;0.10;51.52;0.00;0.00;0.62;;;;;18.10;1.00;;;;;;2251409;61;1122;-87
2023/09/27 04:35:48;0.00;0.00;0.62;0.00;0.00;0.62;;;;;18.10;1.00;;;;;;2251472;61;2009;-85
2023/09/27 04:38:16;0.00;0.00;0.62;0.00;0.00;0.62;;;;;18.30;1.00;;;;;;2251407;61;1112;-85
2023/09/27 04:40:42;773238.00;2.58;1334.49;96823.00;0.32;168.09;;;;;18.50;1.00;;;;;;2251340;61;1362;-86
2023/09/27 04:43:09;12269.00;0.04;21.88;0.00;0.00;0.62;;;;;17.80;1.00;;;;;;2251255;61;1318;-85
2023/09/27 04:45:37;37202.00;0.12;65.05;0.00;0.00;0.62;;;;;17.90;1.00;;;;;;2251244;61;1114;-84
2023/09/27 04:48:05;811.00;0.00;2.03;0.00;0.00;0.62;;;;;17.90;1.00;;;;;;2251349;61;1029;-86
2023/09/27 04:50:33;65616.00;0.22;114.18;0.00;0.00;0.62;;;;;17.50;1.00;;;;;;2251286;61;1292;-85
2023/09/27 04:53:00;12092.00;0.04;21.57;0.00;0.00;0.62;;;;;17.20;1.00;;;;;;2251407;61;1036;-86
2023/09/27 04:55:28;42647.00;0.14;74.47;0.00;0.00;0.62;;;;;17.30;1.00;;;;;;2251558;61;1125;-84
2023/09/27 04:57:54;277293.00;0.92;478.88;29879.00;0.10;52.37;;;;;17.70;1.00;;;;;;2252035;61;1931;-85
2023/09/27 05:00:22;0.00;0.00;0.62;0.00;0.00;0.62;;;;;18.10;1.00;;;;;;2252215;61;1297;-86
2023/09/27 05:02:49;0.00;0.00;0.62;0.00;0.00;0.62;;;;;18.30;1.00;;;;;;2252265;61;1157;-86
2023/09/27 05:05:16;50240.00;0.17;87.60;0.00;0.00;0.62;;;;;18.40;1.00;;;;;;2252259;61;1676;-86
2023/09/27 05:07:44;0.00;0.00;0.62;0.00;0.00;0.62;;;;;17.90;1.00;;;;;;2252250;61;1046;-85
2023/09/27 05:10:12;47760.00;0.16;83.31;0.00;0.00;0.62;;;;;17.70;1.00;;;;;;2252221;61;1418;-85
2023/09/27 05:12:39;1564.00;0.01;3.33;0.00;0.00;0.62;;;;;17.70;1.00;;;;;;2252019;61;1103;-87
2023/09/27 05:15:07;0.00;0.00;0.62;0.00;0.00;0.62;;;;;17.60;1.00;;;;;;2252233;61;1063;-86
2023/09/27 05:17:35;0.00;0.00;0.62;0.00;0.00;0.62;;;;;17.60;1.00;;;;;;2252151;61;1916;-87
2023/09/27 05:20:06;24956.00;0.08;43.85;0.00;0.00;0.62;;;;;17.80;1.00;;;;;;2252060;61;1343;-84
2023/09/27 05:22:33;137254.00;0.46;237.84;0.00;0.00;0.62;;;;;18.20;1.00;;;;;;2252055;61;1067;-85
2023/09/27 05:25:01;243.00;0.00;1.04;0.00;0.00;0.62;;;;;18.20;1.00;;;;;;2251994;61;1015;-85
2023/09/27 05:27:28;143553.00;0.48;248.70;36578.00;0.12;63.97;;;;;18.20;1.00;;;;;;2252033;61;1595;-87
2023/09/27 05:29:55;0.00;0.00;0.62;0.00;0.00;0.62;;;;;18.40;1.00;;;;;;2251955;61;1298;-85
2023/09/27 05:32:23;118253.00;0.39;205.07;40649.00;0.14;71.01;;;;;18.60;1.00;;;;;;2251927;61;1191;-84
2023/09/27 05:34:51;21882.00;0.07;38.53;0.00;0.00;0.62;;;;;18.00;1.00;;;;;;2251958;61;1063;-85
2023/09/27 05:37:18;255.00;0.00;1.06;0.00;0.00;0.62;;;;;17.60;1.00;;;;;;2251990;61;1920;-88
2023/09/27 05:39:45;21683.00;0.07;38.18;0.00;0.00;0.62;;;;;17.10;1.00;;;;;;2252169;61;1385;-87
2023/09/27 05:42:13;233488.00;0.78;403.55;99269.00;0.33;172.31;;;;;17.20;1.00;;;;;;2252191;61;990;-86
2023/09/27 05:44:40;36119.00;0.12;63.17;0.00;0.00;0.62;;;;;17.80;1.00;;;;;;2252094;61;1035;-88
2023/09/27 05:47:07;0.00;0.00;0.62;0.00;0.00;0.62;;;;;18.00;1.00;;;;;;2252180;61;1727;-86
2023/09/27 05:49:34;127131.00;0.42;220.38;0.00;0.00;0.62;;;;;18.10;1.00;;;;;;2252083;61;1751;-86
2023/09/27 05:52:02;59981.00;0.20;104.44;0.00;0.00;0.62;;;;;17.70;1.00;;;;;;2252123;61;1470;-87
2023/09/27 05:54:29;0.00;0.00;0.62;0.00;0.00;0.62;;;;;18.30;1.00;;;;;;2252182;61;1237;-86
2023/09/27 05:56:55;6479.00;0.02;11.85;0.00;0.00;0.62;;;;;18.60;1.00;;;;;;2252118;61;1923;-88
2023/09/27 05:59:24;43375.00;0.14;75.73;0.00;0.00;0.62;;;;;19.20;1.00;;;;;;2252118;61;1291;-87
2023/09/27 06:01:51;10948.00;0.04;19.59;0.00;0.00;0.62;;;;;19.70;1.00;;;;;;2252148;61;2262;-87
2023/09/27 06:04:19;0.00;0.00;0.62;0.00;0.00;0.62;;;;;20.40;1.00;;;;;;2252139;61;1086;-88
2023/09/27 06:06:46;11918.00;0.04;21.27;0.00;0.00;0.62;;;;;20.90;1.00;;;;;;2252165;61;1031;-88
2023/09/27 06:09:13;8640.00;0.03;15.59;0.00;0.00;0.62;;;;;21.00;1.00;;;;;;2252012;61;1021;-86
2023/09/27 06:11:39;44462.00;0.15;77.61;0.00;0.00;0.62;;;;;20.60;1.00;;;;;;2252109;61;1449;-88
2023/09/27 06:14:10;40231.00;0.13;70.29;0.00;0.00;0.62;;;;;19.90;1.00;;;;;;2252068;61;985;-88
2023/09/27 06:16:38;0.00;0.00;0.62;0.00;0.00;0.62;;;;;20.00;1.00;;;;;;2252132;61;1926;-88
2023/09/27 06:19:06;127906.00;0.43;221.72;0.00;0.00;0.62;;;;;20.40;1.00;;;;;;2252137;61;1087;-87
2023/09/27 06:21:33;21423.00;0.07;37.73;0.00;0.00;0.62;;;;;21.30;1.00;;;;;;2252066;61;1756;-88
2023/09/27 06:24:00;113518.00;0.38;196.90;0.00;0.00;0.62;;;;;22.20;1.00;;;;;;2252123;61;923;-87
2023/09/27 06:26:27;104328.00;0.35;181.04;0.00;0.00;0.62;;;;;22.60;1.00;;;;;;2252099;61;1087;-87
2023/09/27 06:28:54;125495.00;0.42;217.56;0.00;0.00;0.62;;;;;22.40;1.00;;;;;;2252096;61;1118;-87
2023/09/27 06:31:21;18248.00;0.06;32.24;0.00;0.00;0.62;;;;;22.60;1.00;;;;;;2251964;61;2335;-87
2023/09/27 06:33:50;0.00;0.00;0.62;0.00;0.00;0.62;;;;;22.50;1.00;;;;;;2252046;61;1253;-87
2023/09/27 06:36:17;0.00;0.00;0.62;0.00;0.00;0.62;;;;;22.60;1.00;;;;;;2252083;61;1089;-86
2023/09/27 06:38:43;61590.00;0.21;107.23;0.00;0.00;0.62;;;;;23.10;1.00;;;;;;2252024;61;2019;-88
2023/09/27 06:41:10;0.00;0.00;0.62;0.00;0.00;0.62;;;;;23.50;1.00;;;;;;2252017;61;1376;-87
2023/09/27 06:43:37;26092.00;0.09;45.82;0.00;0.00;0.62;;;;;23.80;1.00;;;;;;2251888;61;1122;-86
2023/09/27 06:46:10;213579.00;0.71;369.29;39027.00;0.13;68.20;;;;;24.10;1.00;;;;;;2251670;61;1743;-88
2023/09/27 06:48:37;0.00;0.00;0.62;0.00;0.00;0.62;;;;;24.60;1.00;;;;;;2251680;61;1087;-90
2023/09/27 06:51:06;0.00;0.00;0.62;0.00;0.00;0.62;;;;;24.60;1.00;;;;;;2251723;61;1375;-86
2023/09/27 06:53:33;32674.00;0.11;57.21;0.00;0.00;0.62;;;;;24.30;1.00;;;;;;2251739;61;1281;-87
2023/09/27 06:56:02;0.00;0.00;0.62;0.00;0.00;0.62;;;;;24.10;1.00;;;;;;2251599;61;1109;-87
2023/09/27 06:58:29;0.00;0.00;0.62;0.00;0.00;0.62;;;;;24.40;1.00;;;;;;2251676;61;1957;-85
2023/09/27 07:00:56;0.00;0.00;0.62;0.00;0.00;0.62;;;;;24.60;1.00;;;;;;2251670;61;1400;-87
2023/09/27 07:03:24;1341.00;0.00;2.94;0.00;0.00;0.62;;;;;24.60;1.00;;;;;;2251757;61;1110;-88
2023/09/27 07:05:51;0.00;0.00;0.62;0.00;0.00;0.62;;;;;24.50;1.00;;;;;;2251641;61;1003;-87
2023/09/27 07:08:20;81364.00;0.27;141.39;2905.00;0.01;5.65;;;;;24.40;1.00;;;;;;2251665;61;1030;-87
2023/09/27 07:10:47;115687.00;0.39;200.64;39070.00;0.13;68.28;;;;;24.50;1.00;;;;;;2251668;61;1405;-88
2023/09/27 07:13:14;0.00;0.00;0.62;0.00;0.00;0.62;;;;;23.80;1.00;;;;;;2251669;61;1067;-88
2023/09/27 07:15:42;42921.00;0.14;74.94;0.00;0.00;0.62;;;;;23.20;1.00;;;;;;2251609;61;1079;-88
2023/09/27 07:18:09;0.00;0.00;0.62;0.00;0.00;0.62;;;;;23.10;1.00;;;;;;2251611;61;1997;-87
2023/09/27 07:20:36;249990.00;0.83;431.93;91755.00;0.31;159.34;;;;;22.90;1.00;;;;;;2251622;61;1263;-87
2023/09/27 07:23:05;0.00;0.00;0.62;0.00;0.00;0.62;;;;;23.20;1.00;;;;;;2251606;61;1126;-87
2023/09/27 07:25:35;0.00;0.00;0.62;0.00;0.00;0.62;;;;;23.50;1.00;;;;;;2251553;61;1087;-87
2023/09/27 07:28:04;68194.00;0.23;118.64;0.00;0.00;0.62;;;;;24.00;1.00;;;;;;2251597;61;1051;-88
2023/09/27 07:30:34;237423.00;0.79;410.32;90407.00;0.30;157.01;;;;;23.90;1.00;;;;;;2251530;61;1561;-88
2023/09/27 07:33:03;0.00;0.00;0.62;0.00;0.00;0.62;;;;;23.80;1.00;;;;;;2251563;61;1013;-87
2023/09/27 07:35:33;24519.00;0.08;43.09;0.00;0.00;0.62;;;;;24.00;1.00;;;;;;2251604;61;1094;-86
2023/09/27 07:38:00;0.00;0.00;0.62;0.00;0.00;0.62;;;;;24.40;1.00;;;;;;2251512;61;2001;-88
2023/09/27 07:40:28;0.00;0.00;0.62;0.00;0.00;0.62;;;;;24.40;1.00;;;;;;2251509;61;1279;-87
2023/09/27 07:42:56;44947.00;0.15;78.45;0.00;0.00;0.62;;;;;24.20;1.00;;;;;;2251545;61;1032;-90
2023/09/27 07:45:35;0.00;0.00;0.62;0.00;0.00;0.62;;;;;24.00;1.00;;;;;;2237303;61;1084303;-89
2023/09/27 07:48:02;74673.00;0.25;129.83;0.00;0.00;0.62;;;;;24.30;1.00;;;;;;2251834;61;1601;-88
2023/09/27 07:50:31;0.00;0.00;0.62;0.00;0.00;0.62;;;;;24.70;1.00;;;;;;2251808;61;1322;-88
2023/09/27 07:52:58;0.00;0.00;0.62;0.00;0.00;0.62;;;;;24.30;1.00;;;;;;2251815;61;1026;-88
2023/09/27 07:55:25;7672.00;0.03;13.92;0.00;0.00;0.62;;;;;23.90;1.00;;;;;;2251850;61;1125;-88
2023/09/27 07:57:52;29359.00;0.10;51.47;0.00;0.00;0.62;;;;;24.30;1.00;;;;;;2251763;61;1999;-88
2023/09/27 08:00:27;0.00;0.00;0.62;0.00;0.00;0.62;;;;;24.40;1.00;;;;;;2251788;61;1381;-88
2023/09/27 08:02:55;176382.00;0.59;305.26;10135.00;0.03;18.18;;;;;24.30;1.00;;;;;;2251768;61;1040;-87
2023/09/27 08:05:22;8715.00;0.03;15.72;0.00;0.00;0.62;;;;;24.70;1.00;;;;;;2251726;61;1682;-87
2023/09/27 08:07:49;0.00;0.00;0.62;0.00;0.00;0.62;;;;;25.30;1.00;;;;;;2251805;61;1098;-88
2023/09/27 08:10:18;0.00;0.00;0.62;0.00;0.00;0.62;;;;;25.00;1.00;;;;;;2251759;61;1389;-89
2023/09/27 08:12:47;38153.00;0.13;66.69;0.00;0.00;0.62;;;;;24.70;1.00;;;;;;2251783;61;1117;-88
2023/09/27 08:15:14;0.00;0.00;0.62;0.00;0.00;0.62;;;;;25.20;1.00;;;;;;2251821;61;1010;-86
2023/09/27 08:17:42;203269.00;0.68;351.55;41983.00;0.14;73.32;;;;;24.90;1.00;;;;;;2251755;61;1989;-87
2023/09/27 08:20:12;60739.00;0.20;105.75;0.00;0.00;0.62;;;;;24.90;1.00;;;;;;2251728;61;1396;-88
2023/09/27 08:22:39;0.00;0.00;0.62;0.00;0.00;0.62;;;;;25.00;1.00;;;;;;2251728;61;1597;-88
2023/09/27 08:25:09;0.00;0.00;0.62;0.00;0.00;0.62;;;;;25.50;1.00;;;;;;2251732;61;1052;-88
2023/09/27 08:27:36;192976.00;0.64;333.83;32551.00;0.11;57.00;;;;;25.20;1.00;;;;;;2251692;61;1039;-87
2023/09/27 08:30:05;65250.00;0.22;113.55;0.00;0.00;0.62;;;;;23.80;1.00;;;;;;2251685;61;2539;-87
2023/09/27 08:32:33;36764.00;0.12;64.29;0.00;0.00;0.62;;;;;24.10;1.00;;;;;;2252252;61;1047;-86
2023/09/27 08:35:04;179460.00;0.60;310.56;0.00;0.00;0.62;;;;;24.10;1.00;;;;;;2252377;61;1712;-87
2023/09/27 08:37:31;0.00;0.00;0.62;0.00;0.00;0.62;;;;;24.50;1.00;;;;;;2252383;61;2014;-87
2023/09/27 08:39:58;0.00;0.00;0.62;0.00;0.00;0.62;;;;;24.60;1.00;;;;;;2252364;61;1371;-87
2023/09/27 08:42:27;71597.00;0.24;124.52;0.00;0.00;0.62;;;;;23.80;1.00;;;;;;2252237;61;1119;-86
2023/09/27 08:44:54;1043.00;0.00;2.43;0.00;0.00;0.62;;;;;23.80;1.00;;;;;;2252276;61;1016;-86
2023/09/27 08:47:21;0.00;0.00;0.62;0.00;0.00;0.62;;;;;23.70;1.00;;;;;;2252418;61;1032;-87
2023/09/27 08:49:49;0.00;0.00;0.62;0.00;0.00;0.62;;;;;23.60;1.00;;;;;;2252308;61;2187;-87
2023/09/27 08:52:18;0.00;0.00;0.62;0.00;0.00;0.62;;;;;24.00;1.00;;;;;;2252373;61;1078;-87
2023/09/27 08:54:44;0.00;0.00;0.62;0.00;0.00;0.62;;;;;24.20;1.00;;;;;;2252348;61;1065;-88
2023/09/27 08:57:12;48266.00;0.16;84.19;0.00;0.00;0.62;;;;;23.90;1.00;;;;;;2252344;61;2002;-87
2023/09/27 08:59:40;8203.00;0.03;14.84;0.00;0.00;0.62;;;;;23.80;1.00;;;;;;2252274;61;2029;-87
2023/09/27 09:02:08;101691.00;0.34;176.49;0.00;0.00;0.62;;;;;24.00;1.00;;;;;;2252402;61;1103;-87
2023/09/27 09:04:35;39226.00;0.13;68.55;0.00;0.00;0.62;;;;;24.00;1.00;;;;;;2252313;61;916;-87
2023/09/27 09:07:03;162915.00;0.54;282.06;39345.00;0.13;68.76;;;;;23.90;1.00;;;;;;2252332;61;1070;-86
2023/09/27 09:09:31;30839.00;0.10;54.04;0.00;0.00;0.62;;;;;23.50;1.00;;;;;;2252264;61;1371;-88
2023/09/27 09:12:08;16613.00;0.06;29.40;0.00;0.00;0.62;;;;;23.70;1.00;;;;;;2252240;61;1060;-87
2023/09/27 09:14:39;0.00;0.00;0.62;0.00;0.00;0.62;;;;;23.90;1.00;;;;;;2252236;61;1090;-87
2023/09/27 09:17:08;0.00;0.00;0.62;0.00;0.00;0.62;;;;;23.80;1.00;;;;;;2252299;61;1111;-87
2023/09/27 09:19:38;50135.00;0.17;87.42;0.00;0.00;0.62;;;;;23.50;1.00;;;;;;2252211;61;2013;-88
2023/09/27 09:22:08;0.00;0.00;0.62;0.00;0.00;0.62;;;;;23.30;1.00;;;;;;2252268;61;1119;-87
2023/09/27 09:24:37;117847.00;0.39;204.37;0.00;0.00;0.62;;;;;23.40;1.00;;;;;;2252274;61;1119;-86
2023/09/27 09:27:09;0.00;0.00;0.62;0.00;0.00;0.62;;;;;23.80;1.00;;;;;;2252239;61;1692;-88
2023/09/27 09:29:46;45952.00;0.15;80.18;0.00;0.00;0.62;;;;;23.90;1.00;;;;;;2252244;61;1390;-87
2023/09/27 09:32:13;0.00;0.00;0.62;0.00;0.00;0.62;;;;;24.30;1.00;;;;;;2252243;61;1043;-88
2023/09/27 09:34:43;49070.00;0.16;85.58;0.00;0.00;0.62;;;;;24.70;1.00;;;;;;2252241;61;1053;-87
2023/09/27 09:37:17;0.00;0.00;0.62;0.00;0.00;0.62;;;;;24.80;1.00;;;;;;2252181;61;1079;-88
2023/09/27 09:39:46;0.00;0.00;0.62;0.00;0.00;0.62;;;;;24.70;1.00;;;;;;2252184;61;2015;-88
2023/09/27 09:42:14;0.00;0.00;0.62;0.00;0.00;0.62;;;;;24.50;1.00;;;;;;2252079;61;1096;-86
2023/09/27 09:44:41;80957.00;0.27;140.69;15717.00;0.05;27.85;;;;;24.50;1.00;;;;;;2252023;61;1076;-87
2023/09/27 09:47:12;40267.00;0.13;70.35;0.00;0.00;0.62;;;;;24.50;1.00;;;;;;2252234;61;1066;-87
2023/09/27 09:49:41;29577.00;0.10;51.85;0.00;0.00;0.62;;;;;24.40;1.00;;;;;;2252161;61;1392;-87
2023/09/27 09:52:13;0.00;0.00;0.62;0.00;0.00;0.62;;;;;24.50;1.00;;;;;;2252193;61;1116;-87
2023/09/27 09:54:46;0.00;0.00;0.62;0.00;0.00;0.62;;;;;24.30;1.00;;;;;;2252122;61;1022;-86
2023/09/27 09:57:18;22740.00;0.08;40.01;0.00;0.00;0.62;;;;;24.70;1.00;;;;;;2252185;61;1026;-88
2023/09/27 09:59:53;0.00;0.00;0.62;0.00;0.00;0.62;;;;;24.50;1.00;;;;;;2252094;61;1932;-88
2023/09/27 10:02:23;0.00;0.00;0.62;0.00;0.00;0.62;;;;;24.40;1.00;;;;;;2252188;61;1035;-87
2023/09/27 10:04:55;0.00;0.00;0.62;0.00;0.00;0.62;;;;;24.30;1.00;;;;;;2252177;61;1097;-87
2023/09/27 10:07:22;9311.00;0.03;16.76;0.00;0.00;0.62;;;;;24.60;1.00;;;;;;2252187;61;1044;-87
2023/09/27 10:09:50;0.00;0.00;0.62;0.00;0.00;0.62;;;;;24.50;1.00;;;;;;2252083;61;1269;-88
2023/09/27 10:12:21;0.00;0.00;0.62;0.00;0.00;0.62;;;;;24.70;1.00;;;;;;2252066;61;1063;-86
2023/09/27 10:14:50;0.00;0.00;0.62;0.00;0.00;0.62;;;;;24.60;1.00;;;;;;2252108;61;1098;-87
2023/09/27 10:17:25;0.00;0.00;0.62;0.00;0.00;0.62;;;;;24.50;1.00;;;;;;2252134;61;1237;-87
2023/09/27 10:20:14;0.00;0.00;0.62;0.00;0.00;0.62;;;;;24.50;1.00;;;;;;2252041;61;1923;-87